West Hampton, New York
Current Conditions -  °F | °C
As of 2:53 AM on Friday 24 Oct 2014 (Local Time) from KFOK Reporting Station
Overcast Overcast  
Wind Chill: 52°   Ceiling: 1600
Heat Index: 52°   Visibility: 10mi
Dew Point: 47°   Wind: 10mph
Humidity: 83%   Direction: 330°NNW
Pressure: 29.72"   Gusts: 20mph
Location:  40.8273°N, 72.678°W
Report Text: KFOK 240653Z 33009G17KT 10SM OVC016 11/08 A2972 RMK AO2 SLP062 T01110083
Loading
Personal Weather Stations






























Interactive Weather Map
Tropical Storm Tracking
New forecast layout! Learn more

10-Day Weather Forecast

Advertisements
Track Severe Weather on mobile